createdAt,value
2022-11-14T00:00:23.729Z,1027.12
2022-11-14T00:01:23.747Z,1027.18
2022-11-14T00:02:23.763Z,1027.11
2022-11-14T00:03:23.731Z,1027.23
2022-11-14T00:04:28.233Z,1027.21
2022-11-14T00:05:23.745Z,1027.08
2022-11-14T00:06:23.736Z,1027.05
2022-11-14T00:07:23.795Z,1027.16
2022-11-14T00:08:23.726Z,1027.07
2022-11-14T00:09:23.728Z,1027.07
2022-11-14T00:10:23.725Z,1027.05
2022-11-14T00:11:23.728Z,1027
2022-11-14T00:12:23.771Z,1026.99
2022-11-14T00:13:23.730Z,1027
2022-11-14T00:14:23.728Z,1026.96
2022-11-14T00:15:23.730Z,1026.99
2022-11-14T00:16:23.742Z,1026.96
2022-11-14T00:17:23.731Z,1027.07
2022-11-14T00:18:23.736Z,1027.02
2022-11-14T00:19:23.723Z,1027.02
2022-11-14T00:20:23.725Z,1027.02
2022-11-14T00:21:23.721Z,1026.95
2022-11-14T00:22:23.732Z,1026.99
2022-11-14T00:23:23.725Z,1027
2022-11-14T00:24:23.725Z,1026.94
2022-11-14T00:25:23.724Z,1026.91
2022-11-14T00:26:23.734Z,1026.89
2022-11-14T00:27:23.741Z,1026.95
2022-11-14T00:28:23.713Z,1026.91
2022-11-14T00:29:23.720Z,1026.9
2022-11-14T00:30:23.723Z,1026.88
2022-11-14T00:31:23.746Z,1026.9
2022-11-14T00:32:23.719Z,1026.87
2022-11-14T00:33:23.719Z,1026.9
2022-11-14T00:34:23.708Z,1026.91
2022-11-14T00:35:23.715Z,1026.87
2022-11-14T00:36:23.712Z,1026.86
2022-11-14T00:37:23.796Z,1026.83
2022-11-14T00:38:23.718Z,1026.88
2022-11-14T00:39:23.714Z,1026.89
2022-11-14T00:40:23.706Z,1026.88
2022-11-14T00:41:23.832Z,1026.92
2022-11-14T00:42:23.767Z,1026.85
2022-11-14T00:43:23.711Z,1026.92
2022-11-14T00:44:23.718Z,1026.82
2022-11-14T00:45:23.778Z,1026.82
2022-11-14T00:46:23.752Z,1026.82
2022-11-14T00:47:23.787Z,1026.8
2022-11-14T00:48:23.719Z,1026.73
2022-11-14T00:49:23.708Z,1026.79
2022-11-14T00:50:23.706Z,1026.78
2022-11-14T00:51:23.712Z,1026.72
2022-11-14T00:52:23.743Z,1026.74
2022-11-14T00:53:23.728Z,1026.73
2022-11-14T00:54:23.729Z,1026.74
2022-11-14T00:55:23.722Z,1026.77
2022-11-14T00:56:23.723Z,1026.74
2022-11-14T00:57:23.727Z,1026.65
2022-11-14T00:58:23.730Z,1026.68
2022-11-14T00:59:23.722Z,1026.66
2022-11-14T01:00:23.771Z,1026.6
2022-11-14T01:01:23.795Z,1026.57
2022-11-14T01:02:23.765Z,1026.6
2022-11-14T01:03:23.732Z,1026.54
2022-11-14T01:04:23.728Z,1026.52
2022-11-14T01:05:23.731Z,1026.5
2022-11-14T01:06:23.766Z,1026.46
2022-11-14T01:07:23.728Z,1026.38
2022-11-14T01:08:23.726Z,1026.4
2022-11-14T01:09:23.812Z,1026.4
2022-11-14T01:10:23.725Z,1026.39
2022-11-14T01:11:23.728Z,1026.42
2022-11-14T01:12:23.820Z,1026.3
2022-11-14T01:13:23.727Z,1026.32
2022-11-14T01:14:23.736Z,1026.32
2022-11-14T01:15:23.727Z,1026.26
2022-11-14T01:16:23.741Z,1026.25
2022-11-14T01:17:23.729Z,1026.29
2022-11-14T01:18:23.722Z,1026.3
2022-11-14T01:19:23.848Z,1026.31
2022-11-14T01:20:23.733Z,1026.22
2022-11-14T01:21:23.730Z,1026.21
2022-11-14T01:22:23.737Z,1026.22
2022-11-14T01:23:23.723Z,1026.19
2022-11-14T01:24:23.797Z,1026.19
2022-11-14T01:25:23.726Z,1026.17
2022-11-14T01:26:23.732Z,1026.16
2022-11-14T01:27:23.733Z,1026.15
2022-11-14T01:28:23.733Z,1026.08
2022-11-14T01:29:23.722Z,1026.12
2022-11-14T01:30:23.722Z,1026.12
2022-11-14T01:31:23.826Z,1026.12
2022-11-14T01:32:23.741Z,1026.09
2022-11-14T01:33:23.725Z,1026.05
2022-11-14T01:34:23.741Z,1026.09
2022-11-14T01:35:23.720Z,1026.04
2022-11-14T01:36:23.742Z,1026.07
2022-11-14T01:37:23.743Z,1025.97
2022-11-14T01:38:23.724Z,1026
2022-11-14T01:39:23.726Z,1026.03
2022-11-14T01:40:23.726Z,1025.94
2022-11-14T01:41:23.728Z,1025.94
2022-11-14T01:42:27.373Z,1025.98
2022-11-14T01:43:23.706Z,1025.93
2022-11-14T01:44:23.713Z,1025.89
2022-11-14T01:45:23.705Z,1025.85
2022-11-14T01:46:23.727Z,1025.89
2022-11-14T01:47:23.713Z,1025.86
2022-11-14T01:48:23.742Z,1025.8
2022-11-14T01:49:23.705Z,1025.8
2022-11-14T01:50:23.778Z,1025.7
2022-11-14T01:51:23.710Z,1025.81
2022-11-14T01:52:23.717Z,1025.73
2022-11-14T01:53:23.707Z,1025.72
2022-11-14T01:54:23.711Z,1025.77
2022-11-14T01:55:23.720Z,1025.71
2022-11-14T01:56:23.708Z,1025.71
2022-11-14T01:57:23.719Z,1025.68
2022-11-14T01:58:23.773Z,1025.68
2022-11-14T01:59:23.711Z,1025.59
2022-11-14T02:00:23.716Z,1025.58
2022-11-14T02:01:23.771Z,1025.58
2022-11-14T02:02:23.738Z,1025.61
2022-11-14T02:03:23.711Z,1025.5
2022-11-14T02:04:23.723Z,1025.45
2022-11-14T02:05:23.720Z,1025.42
2022-11-14T02:06:23.802Z,1025.43
2022-11-14T02:07:23.880Z,1025.49
2022-11-14T02:08:23.724Z,1025.47
2022-11-14T02:09:23.724Z,1025.47
2022-11-14T02:10:23.726Z,1025.4
2022-11-14T02:11:23.745Z,1025.35
2022-11-14T02:12:23.730Z,1025.35
2022-11-14T02:13:23.778Z,1025.31
2022-11-14T02:14:23.752Z,1025.27
2022-11-14T02:15:23.724Z,1025.26
2022-11-14T02:16:23.740Z,1025.23
2022-11-14T02:17:30.838Z,1025.3
2022-11-14T02:18:23.730Z,1025.34
2022-11-14T02:19:23.728Z,1025.21
2022-11-14T02:20:23.720Z,1025.2
2022-11-14T02:21:23.727Z,1025.21
2022-11-14T02:22:23.731Z,1025.21
2022-11-14T02:23:23.729Z,1025.17
2022-11-14T02:24:23.729Z,1025.14
2022-11-14T02:25:23.725Z,1025.1
2022-11-14T02:26:23.726Z,1025.15
2022-11-14T02:27:23.734Z,1025.13
2022-11-14T02:28:23.723Z,1025.11
2022-11-14T02:29:23.723Z,1025.07
2022-11-14T02:30:23.718Z,1025.03
2022-11-14T02:31:23.737Z,1025.08
2022-11-14T02:32:23.735Z,1025.05
2022-11-14T02:33:23.741Z,1025.07
2022-11-14T02:34:23.723Z,1025.01
2022-11-14T02:35:23.726Z,1024.98
2022-11-14T02:36:23.727Z,1024.98
2022-11-14T02:37:23.728Z,1025.04
2022-11-14T02:38:23.731Z,1025.04
2022-11-14T02:39:23.725Z,1025.13
2022-11-14T02:40:23.728Z,1025.01
2022-11-14T02:41:23.731Z,1025
2022-11-14T02:42:23.730Z,1025.06
2022-11-14T02:43:23.725Z,1025.01
2022-11-14T02:44:23.725Z,1024.99
2022-11-14T02:45:23.724Z,1024.93
2022-11-14T02:46:23.735Z,1024.98
2022-11-14T02:47:23.719Z,1025.03
2022-11-14T02:48:23.724Z,1024.94
2022-11-14T02:49:23.725Z,1025.01
2022-11-14T02:50:23.715Z,1025.02
2022-11-14T02:51:23.722Z,1025.03
2022-11-14T02:52:23.721Z,1025.06
2022-11-14T02:53:23.714Z,1025.03
2022-11-14T02:54:23.710Z,1025.05
2022-11-14T02:55:23.705Z,1025.01
2022-11-14T02:56:23.709Z,1024.94
2022-11-14T02:57:23.715Z,1024.98
2022-11-14T02:58:23.710Z,1025.13
2022-11-14T02:59:23.708Z,1024.98
2022-11-14T03:00:23.715Z,1025.03
2022-11-14T03:01:23.912Z,1025.02
2022-11-14T03:02:23.797Z,1024.99
2022-11-14T03:03:23.711Z,1025.08
2022-11-14T03:04:23.709Z,1024.97
2022-11-14T03:05:23.713Z,1025.03
2022-11-14T03:06:23.712Z,1025.02
2022-11-14T03:07:23.802Z,1025.03
2022-11-14T03:08:23.710Z,1025.07
2022-11-14T03:09:23.710Z,1025.07
2022-11-14T03:10:23.722Z,1024.85
2022-11-14T03:11:23.711Z,1024.88
2022-11-14T03:12:23.727Z,1024.92
2022-11-14T03:13:23.723Z,1024.98
2022-11-14T03:14:23.730Z,1024.77
2022-11-14T03:15:23.726Z,1025.14
2022-11-14T03:16:23.740Z,1024.84
2022-11-14T03:17:23.736Z,1024.86
2022-11-14T03:18:23.727Z,1025.1
2022-11-14T03:19:23.732Z,1024.74
2022-11-14T03:20:23.729Z,1024.78
2022-11-14T03:21:23.724Z,1024.73
2022-11-14T03:22:23.734Z,1024.76
2022-11-14T03:23:23.723Z,1024.81
2022-11-14T03:24:23.724Z,1024.77
2022-11-14T03:25:23.727Z,1024.67
2022-11-14T03:26:23.727Z,1024.7
2022-11-14T03:27:23.729Z,1024.97
2022-11-14T03:28:23.747Z,1024.7
2022-11-14T03:29:23.728Z,1024.6
2022-11-14T03:30:23.726Z,1024.62
2022-11-14T03:31:23.743Z,1024.67
2022-11-14T03:32:23.738Z,1024.7
2022-11-14T03:33:23.729Z,1024.66
2022-11-14T03:34:23.732Z,1024.6
2022-11-14T03:35:23.724Z,1024.58
2022-11-14T03:36:23.723Z,1024.53
2022-11-14T03:37:23.727Z,1024.61
2022-11-14T03:38:23.731Z,1024.64
2022-11-14T03:39:23.736Z,1024.85
2022-11-14T03:40:23.729Z,1024.37
2022-11-14T03:41:23.724Z,1024.65
2022-11-14T03:42:23.729Z,1024.53
2022-11-14T03:43:23.723Z,1024.47
2022-11-14T03:44:23.729Z,1024.52
2022-11-14T03:45:23.722Z,1024.62
2022-11-14T03:46:23.780Z,1024.69
2022-11-14T03:47:23.739Z,1024.65
2022-11-14T03:48:23.725Z,1024.47
2022-11-14T03:49:23.729Z,1024.58
2022-11-14T03:50:23.718Z,1024.39
2022-11-14T03:51:23.726Z,1024.57
2022-11-14T03:52:23.724Z,1024.8
2022-11-14T03:53:23.729Z,1024.46
2022-11-14T03:54:23.723Z,1024.4
2022-11-14T03:55:23.709Z,1024.62
2022-11-14T03:56:23.727Z,1024.52
2022-11-14T03:57:23.751Z,1024.4
2022-11-14T03:58:23.718Z,1024.38
2022-11-14T03:59:23.714Z,1024.41
2022-11-14T04:00:23.706Z,1024.35
2022-11-14T04:01:23.770Z,1024.39
2022-11-14T04:02:23.717Z,1024.61
2022-11-14T04:03:23.708Z,1024.54
2022-11-14T04:04:23.710Z,1024.28
2022-11-14T04:05:23.706Z,1024.46
2022-11-14T04:06:23.709Z,1024.36
2022-11-14T04:07:23.875Z,1024.44
2022-11-14T04:08:23.706Z,1024.45
2022-11-14T04:09:23.709Z,1024.45
2022-11-14T04:10:23.708Z,1024.34
2022-11-14T04:11:23.708Z,1024.38
2022-11-14T04:12:23.713Z,1024.29
2022-11-14T04:13:23.712Z,1024.4
2022-11-14T04:14:23.798Z,1024.35
2022-11-14T04:15:23.715Z,1024.54
2022-11-14T04:16:23.738Z,1024.34
2022-11-14T04:17:23.724Z,1024.41
2022-11-14T04:18:23.710Z,1024.28
2022-11-14T04:19:23.734Z,1024.44
2022-11-14T04:20:23.708Z,1024.38
2022-11-14T04:21:23.723Z,1024.29
2022-11-14T04:22:23.737Z,1024.32
2022-11-14T04:23:23.719Z,1024.1
2022-11-14T04:24:23.780Z,1024.18
2022-11-14T04:25:23.727Z,1024.5
2022-11-14T04:26:23.736Z,1024.42
2022-11-14T04:27:23.732Z,1024.36
2022-11-14T04:28:23.733Z,1024.19
2022-11-14T04:29:23.722Z,1024.3
2022-11-14T04:30:23.733Z,1024.18
2022-11-14T04:31:23.746Z,1024.22
2022-11-14T04:32:23.752Z,1024.16
2022-11-14T04:33:23.728Z,1024.08
2022-11-14T04:34:23.722Z,1024.19
2022-11-14T04:35:23.724Z,1024.09
2022-11-14T04:36:23.720Z,1024.13
2022-11-14T04:37:23.728Z,1024.16
2022-11-14T04:38:23.736Z,1024.1
2022-11-14T04:39:23.721Z,1024.07
2022-11-14T04:40:23.721Z,1024.44
2022-11-14T04:41:23.813Z,1024.22
2022-11-14T04:42:23.725Z,1024.18
2022-11-14T04:43:23.720Z,1024.21
2022-11-14T04:44:23.724Z,1024.32
2022-11-14T04:45:23.770Z,1024.24
2022-11-14T04:46:23.739Z,1024.14
2022-11-14T04:47:23.729Z,1024.18
2022-11-14T04:48:23.724Z,1024.24
2022-11-14T04:49:23.715Z,1024.19
2022-11-14T04:50:23.726Z,1024.22
2022-11-14T04:51:23.730Z,1024.17
2022-11-14T04:52:23.724Z,1024.12
2022-11-14T04:53:23.729Z,1024.09
2022-11-14T04:54:23.720Z,1024.1
2022-11-14T04:55:23.724Z,1024.03
2022-11-14T04:56:23.727Z,1024.03
2022-11-14T04:57:23.730Z,1024.04
2022-11-14T04:58:23.728Z,1024.08
2022-11-14T04:59:23.719Z,1023.99
2022-11-14T05:00:23.784Z,1024.04
2022-11-14T05:01:23.818Z,1023.96
2022-11-14T05:02:23.736Z,1024.13
2022-11-14T05:03:23.725Z,1024.1
2022-11-14T05:04:23.732Z,1024.07
2022-11-14T05:05:23.789Z,1023.91
2022-11-14T05:06:23.715Z,1024.09
2022-11-14T05:07:23.798Z,1024.01
2022-11-14T05:08:23.709Z,1024.03
2022-11-14T05:09:23.710Z,1024.03
2022-11-14T05:10:23.724Z,1024.01
2022-11-14T05:11:28.868Z,1023.99
2022-11-14T05:12:23.741Z,1023.95
2022-11-14T05:13:23.711Z,1024.14
2022-11-14T05:14:23.708Z,1024.1
2022-11-14T05:15:23.710Z,1023.97
2022-11-14T05:16:23.725Z,1023.96
2022-11-14T05:17:23.715Z,1024.03
2022-11-14T05:18:23.709Z,1023.93
2022-11-14T05:19:23.711Z,1023.94
2022-11-14T05:20:23.715Z,1023.95
2022-11-14T05:21:23.711Z,1023.94
2022-11-14T05:22:23.718Z,1024.03
2022-11-14T05:23:23.715Z,1023.95
2022-11-14T05:24:23.707Z,1023.97
2022-11-14T05:25:23.707Z,1024
2022-11-14T05:26:23.707Z,1023.92
2022-11-14T05:27:23.737Z,1024.01
2022-11-14T05:28:23.729Z,1023.93
2022-11-14T05:29:23.751Z,1023.94
2022-11-14T05:30:23.713Z,1024.1
2022-11-14T05:31:23.748Z,1023.99
2022-11-14T05:32:23.731Z,1023.94
2022-11-14T05:33:23.726Z,1023.89
2022-11-14T05:34:23.745Z,1023.96
2022-11-14T05:35:23.786Z,1024.1
2022-11-14T05:36:23.725Z,1024.06
2022-11-14T05:37:23.728Z,1023.94
2022-11-14T05:38:23.723Z,1024
2022-11-14T05:39:23.776Z,1024.27
2022-11-14T05:40:23.719Z,1023.96
2022-11-14T05:41:23.721Z,1024.01
2022-11-14T05:42:23.719Z,1024.1
2022-11-14T05:43:23.726Z,1024.05
2022-11-14T05:44:23.725Z,1024.03
2022-11-14T05:45:23.729Z,1023.98
2022-11-14T05:46:23.755Z,1024.04
2022-11-14T05:47:23.741Z,1024.12
2022-11-14T05:48:23.725Z,1024.01
2022-11-14T05:49:23.727Z,1024.05
2022-11-14T05:50:23.777Z,1023.87
2022-11-14T05:51:23.724Z,1024.03
2022-11-14T05:52:23.727Z,1024
2022-11-14T05:53:23.725Z,1023.96
2022-11-14T05:54:23.729Z,1024.07
2022-11-14T05:55:25.121Z,1023.93
2022-11-14T05:56:23.721Z,1024
2022-11-14T05:57:23.883Z,1023.92
2022-11-14T05:58:23.720Z,1023.88
2022-11-14T05:59:23.723Z,1023.91
2022-11-14T06:00:23.726Z,1023.96
2022-11-14T06:01:23.736Z,1024.04
2022-11-14T06:02:23.759Z,1024.07
2022-11-14T06:03:23.717Z,1023.94
2022-11-14T06:04:23.744Z,1024.06
2022-11-14T06:05:23.722Z,1023.98
2022-11-14T06:06:23.720Z,1024.18
2022-11-14T06:07:23.822Z,1024.05
2022-11-14T06:08:23.717Z,1024.06
2022-11-14T06:09:23.722Z,1024.06
2022-11-14T06:10:23.787Z,1024.05
2022-11-14T06:11:23.729Z,1024.09
2022-11-14T06:12:23.726Z,1023.95
2022-11-14T06:13:23.737Z,1024.09
2022-11-14T06:14:23.724Z,1024.15
2022-11-14T06:15:23.730Z,1024.01
2022-11-14T06:16:23.739Z,1024.03
2022-11-14T06:17:23.712Z,1024.09
2022-11-14T06:18:23.721Z,1023.99
2022-11-14T06:19:23.729Z,1023.92
2022-11-14T06:20:23.752Z,1024.08
2022-11-14T06:21:23.711Z,1024.04
2022-11-14T06:22:23.720Z,1024.05
2022-11-14T06:23:25.015Z,1023.98
2022-11-14T06:24:23.716Z,1023.99
2022-11-14T06:25:23.709Z,1023.9
2022-11-14T06:26:23.712Z,1024.12
2022-11-14T06:27:23.722Z,1024.08
2022-11-14T06:28:23.710Z,1024
2022-11-14T06:29:23.708Z,1024.05
2022-11-14T06:30:23.835Z,1024
2022-11-14T06:31:23.731Z,1024.39
2022-11-14T06:32:23.719Z,1023.95
2022-11-14T06:33:23.722Z,1024.12
2022-11-14T06:34:23.711Z,1024.01
2022-11-14T06:35:23.712Z,1024.11
2022-11-14T06:36:23.721Z,1024.1
2022-11-14T06:37:23.721Z,1024.4
2022-11-14T06:38:23.709Z,1024.16
2022-11-14T06:39:23.726Z,1024.17
2022-11-14T06:40:23.729Z,1024.31
2022-11-14T06:41:23.742Z,1024.14
2022-11-14T06:42:23.734Z,1024.21
2022-11-14T06:43:23.725Z,1024.18
2022-11-14T06:44:29.417Z,1024.17
2022-11-14T06:45:23.723Z,1024.21
2022-11-14T06:46:23.736Z,1024.22
2022-11-14T06:47:23.733Z,1024.22
2022-11-14T06:48:23.721Z,1024.1
2022-11-14T06:49:23.727Z,1024.24
2022-11-14T06:50:23.782Z,1024.32
2022-11-14T06:51:23.720Z,1024.17
2022-11-14T06:52:23.726Z,1024.33
2022-11-14T06:53:23.719Z,1024.14
2022-11-14T06:54:23.722Z,1024.3
2022-11-14T06:55:25.435Z,1024.51
2022-11-14T06:56:23.725Z,1024.22
2022-11-14T06:57:23.728Z,1024.27
2022-11-14T06:58:23.733Z,1024.09
2022-11-14T06:59:23.733Z,1024.26
2022-11-14T07:00:23.715Z,1024.4
2022-11-14T07:01:23.735Z,1024.14
2022-11-14T07:02:23.734Z,1024.04
2022-11-14T07:03:23.810Z,1024.08
2022-11-14T07:04:23.728Z,1024.19
2022-11-14T07:05:23.730Z,1024.03
2022-11-14T07:06:23.724Z,1024.01
2022-11-14T07:07:23.888Z,1024.04
2022-11-14T07:08:23.724Z,1024.1
2022-11-14T07:09:23.721Z,1024.1
2022-11-14T07:10:23.735Z,1024.01
2022-11-14T07:11:23.804Z,1023.92
2022-11-14T07:12:23.730Z,1023.91
2022-11-14T07:13:23.730Z,1023.83
2022-11-14T07:14:23.723Z,1024
2022-11-14T07:15:23.724Z,1023.76
2022-11-14T07:16:23.734Z,1023.9
2022-11-14T07:17:28.417Z,1023.82
2022-11-14T07:18:23.799Z,1023.73
2022-11-14T07:19:23.718Z,1023.68
2022-11-14T07:20:23.714Z,1023.81
2022-11-14T07:21:23.728Z,1023.75
2022-11-14T07:22:23.733Z,1023.7
2022-11-14T07:23:23.733Z,1023.77
2022-11-14T07:24:23.747Z,1023.75
2022-11-14T07:25:23.731Z,1023.72
2022-11-14T07:26:23.732Z,1023.73
2022-11-14T07:27:23.735Z,1023.83
2022-11-14T07:28:23.718Z,1023.73
2022-11-14T07:29:23.722Z,1023.77
2022-11-14T07:30:23.718Z,1023.74
2022-11-14T07:31:23.916Z,1023.72
2022-11-14T07:32:23.728Z,1023.86
2022-11-14T07:33:23.730Z,1023.78
2022-11-14T07:34:23.710Z,1023.69
2022-11-14T07:35:23.744Z,1023.72
2022-11-14T07:36:23.710Z,1024.1
2022-11-14T07:37:23.722Z,1023.69
2022-11-14T07:38:23.714Z,1023.82
2022-11-14T07:39:23.720Z,1023.78
2022-11-14T07:40:23.715Z,1023.83
2022-11-14T07:41:23.711Z,1023.61
2022-11-14T07:42:23.723Z,1023.62
2022-11-14T07:43:23.710Z,1023.64
2022-11-14T07:44:23.713Z,1023.72
2022-11-14T07:45:23.713Z,1023.7
2022-11-14T07:46:23.732Z,1023.73
2022-11-14T07:47:23.730Z,1023.66
2022-11-14T07:48:23.728Z,1023.68
2022-11-14T07:49:23.706Z,1023.71
2022-11-14T07:50:23.715Z,1023.8
2022-11-14T07:51:23.711Z,1023.88
2022-11-14T07:52:23.771Z,1023.76
2022-11-14T07:53:23.729Z,1023.8
2022-11-14T07:54:23.714Z,1023.84
2022-11-14T07:55:23.710Z,1023.86
2022-11-14T07:56:23.723Z,1023.83
2022-11-14T07:57:23.730Z,1023.77
2022-11-14T07:58:23.717Z,1024.14
2022-11-14T07:59:23.719Z,1023.94
2022-11-14T08:00:23.721Z,1024.01
2022-11-14T08:01:23.769Z,1023.99
2022-11-14T08:02:23.733Z,1023.95
2022-11-14T08:03:23.723Z,1023.96
2022-11-14T08:04:23.771Z,1023.92
2022-11-14T08:05:23.724Z,1023.93
2022-11-14T08:06:23.721Z,1024.06
2022-11-14T08:07:23.808Z,1023.86
2022-11-14T08:08:23.730Z,1023.93
2022-11-14T08:09:23.727Z,1023.93
2022-11-14T08:10:23.714Z,1023.9
2022-11-14T08:11:34.930Z,1024.01
2022-11-14T08:12:23.728Z,1023.84
2022-11-14T08:13:33.010Z,1023.91
2022-11-14T08:14:23.734Z,1023.72
2022-11-14T08:15:23.781Z,1023.94
2022-11-14T08:16:23.740Z,1023.82
2022-11-14T08:17:23.725Z,1023.89
2022-11-14T08:18:23.722Z,1023.87
2022-11-14T08:19:23.725Z,1023.75
2022-11-14T08:20:23.713Z,1023.84
2022-11-14T08:21:23.730Z,1023.97
2022-11-14T08:22:23.733Z,1023.91
2022-11-14T08:23:23.734Z,1023.9
2022-11-14T08:24:23.725Z,1023.81
2022-11-14T08:25:23.728Z,1023.85
2022-11-14T08:26:23.726Z,1023.77
2022-11-14T08:27:23.725Z,1023.74
2022-11-14T08:28:23.718Z,1023.83
2022-11-14T08:29:23.719Z,1023.78
2022-11-14T08:30:23.713Z,1023.85
2022-11-14T08:31:23.741Z,1023.76
2022-11-14T08:32:23.735Z,1023.76
2022-11-14T08:33:23.727Z,1023.72
2022-11-14T08:34:23.720Z,1023.78
2022-11-14T08:35:23.725Z,1023.68
2022-11-14T08:36:23.724Z,1023.67
2022-11-14T08:37:23.729Z,1023.63
2022-11-14T08:38:23.721Z,1023.6
2022-11-14T08:39:23.749Z,1023.75
2022-11-14T08:40:23.718Z,1023.67
2022-11-14T08:41:23.727Z,1023.84
2022-11-14T08:42:23.730Z,1023.7
2022-11-14T08:43:23.706Z,1023.68
2022-11-14T08:44:23.717Z,1023.76
2022-11-14T08:45:23.727Z,1023.69
2022-11-14T08:46:23.808Z,1023.69
2022-11-14T08:47:23.730Z,1023.64
2022-11-14T08:48:23.706Z,1023.61
2022-11-14T08:49:23.718Z,1023.68
2022-11-14T08:50:23.716Z,1023.87
2022-11-14T08:51:23.706Z,1023.54
2022-11-14T08:52:23.715Z,1023.53
2022-11-14T08:53:23.712Z,1023.75
2022-11-14T08:54:23.711Z,1023.76
2022-11-14T08:55:23.746Z,1023.58
2022-11-14T08:56:23.710Z,1023.72
2022-11-14T08:57:23.724Z,1023.71
2022-11-14T08:58:23.718Z,1023.73
2022-11-14T08:59:23.706Z,1023.74
2022-11-14T09:00:23.880Z,1023.84
2022-11-14T09:01:23.760Z,1023.84
2022-11-14T09:02:23.721Z,1023.84
2022-11-14T09:03:23.774Z,1023.75
2022-11-14T09:04:23.763Z,1023.74
2022-11-14T09:05:23.726Z,1023.73
2022-11-14T09:06:23.721Z,1023.67
2022-11-14T09:07:23.813Z,1023.7
2022-11-14T09:08:23.716Z,1023.8
2022-11-14T09:09:23.722Z,1023.8
2022-11-14T09:10:23.803Z,1023.91
2022-11-14T09:11:23.725Z,1023.9
2022-11-14T09:12:23.732Z,1023.75
2022-11-14T09:13:23.797Z,1023.76
2022-11-14T09:14:23.727Z,1023.8
2022-11-14T09:15:23.724Z,1023.85
2022-11-14T09:16:23.737Z,1023.98
2022-11-14T09:17:23.743Z,1023.89
2022-11-14T09:18:23.722Z,1023.96
2022-11-14T09:19:23.721Z,1023.91
2022-11-14T09:20:28.431Z,1023.94
2022-11-14T09:21:23.724Z,1023.94
2022-11-14T09:22:23.735Z,1023.82
2022-11-14T09:23:23.722Z,1023.96
2022-11-14T09:24:23.725Z,1023.95
2022-11-14T09:25:23.721Z,1023.89
2022-11-14T09:26:23.724Z,1024
2022-11-14T09:27:23.766Z,1023.93
2022-11-14T09:28:23.722Z,1023.89
2022-11-14T09:29:23.717Z,1024.05
2022-11-14T09:30:23.742Z,1024.04
2022-11-14T09:31:23.742Z,1023.93
2022-11-14T09:32:23.728Z,1023.98
2022-11-14T09:33:23.718Z,1023.97
2022-11-14T09:34:23.718Z,1024.04
2022-11-14T09:35:23.722Z,1024.13
2022-11-14T09:36:23.731Z,1024.01
2022-11-14T09:37:23.726Z,1024.11
2022-11-14T09:38:23.720Z,1024.08
2022-11-14T09:39:23.800Z,1024.1
2022-11-14T09:40:23.741Z,1024.03
2022-11-14T09:41:23.717Z,1024.11
2022-11-14T09:42:23.733Z,1024.06
2022-11-14T09:43:23.725Z,1023.95
2022-11-14T09:44:23.725Z,1023.93
2022-11-14T09:45:23.719Z,1024.1
2022-11-14T09:46:23.732Z,1023.99
2022-11-14T09:47:23.732Z,1024.08
2022-11-14T09:48:23.721Z,1024.06
2022-11-14T09:49:23.727Z,1024.14
2022-11-14T09:50:26.071Z,1024.1
2022-11-14T09:51:23.713Z,1024.08
2022-11-14T09:52:23.707Z,1024.06
2022-11-14T09:53:23.706Z,1024.13
2022-11-14T09:54:23.707Z,1023.97
2022-11-14T09:55:23.779Z,1023.94
2022-11-14T09:56:23.717Z,1023.92
2022-11-14T09:57:23.712Z,1023.91
2022-11-14T09:58:23.759Z,1023.85
2022-11-14T09:59:23.710Z,1023.92
2022-11-14T10:00:23.711Z,1023.91
2022-11-14T10:01:23.765Z,1023.77
2022-11-14T10:02:23.811Z,1023.89
2022-11-14T10:03:23.712Z,1023.99
2022-11-14T10:04:23.722Z,1023.92
2022-11-14T10:05:23.768Z,1023.8
2022-11-14T10:06:23.720Z,1023.82
2022-11-14T10:07:23.963Z,1023.84
2022-11-14T10:08:23.705Z,1023.76
2022-11-14T10:09:28.842Z,1023.76
2022-11-14T10:10:23.720Z,1023.8
2022-11-14T10:11:23.797Z,1023.78
2022-11-14T10:12:23.718Z,1023.76
2022-11-14T10:13:23.723Z,1023.77
2022-11-14T10:14:23.709Z,1023.76
2022-11-14T10:15:23.725Z,1023.71
2022-11-14T10:16:23.740Z,1023.95
2022-11-14T10:17:23.724Z,1023.95
2022-11-14T10:18:23.722Z,1023.95
2022-11-14T10:19:23.718Z,1023.75
2022-11-14T10:20:23.710Z,1023.95
2022-11-14T10:21:23.747Z,1023.85
2022-11-14T10:22:23.728Z,1023.77
2022-11-14T10:23:23.726Z,1023.85
2022-11-14T10:24:23.725Z,1023.9
2022-11-14T10:25:23.725Z,1023.83
2022-11-14T10:26:23.738Z,1023.83
2022-11-14T10:27:23.712Z,1023.9
2022-11-14T10:28:23.712Z,1024.11
2022-11-14T10:29:23.708Z,1023.91
2022-11-14T10:30:23.722Z,1023.93
2022-11-14T10:31:23.745Z,1023.99
2022-11-14T10:32:24.056Z,1023.96
2022-11-14T10:33:23.716Z,1023.99
2022-11-14T10:34:23.726Z,1024.04
2022-11-14T10:35:23.737Z,1024.09
2022-11-14T10:36:23.740Z,1024.03
2022-11-14T10:37:23.726Z,1024.06
2022-11-14T10:38:23.726Z,1023.91
2022-11-14T10:39:23.721Z,1023.88
2022-11-14T10:40:23.728Z,1024
2022-11-14T10:41:50.020Z,1023.97
2022-11-14T10:42:23.724Z,1023.86
2022-11-14T10:43:23.716Z,1023.9
2022-11-14T10:44:23.720Z,1023.84
2022-11-14T10:45:23.717Z,1023.82
2022-11-14T10:46:23.744Z,1023.73
2022-11-14T10:47:23.728Z,1023.78
2022-11-14T10:48:23.714Z,1023.89
2022-11-14T10:49:23.721Z,1023.93
2022-11-14T10:50:23.718Z,1023.95
2022-11-14T10:51:23.737Z,1023.96
2022-11-14T10:52:23.723Z,1024.06
2022-11-14T10:53:23.732Z,1024.1
2022-11-14T10:54:23.712Z,1023.89
2022-11-14T10:55:49.808Z,1023.98
2022-11-14T10:56:23.732Z,1024.12
2022-11-14T10:57:23.718Z,1023.99
2022-11-14T10:58:23.718Z,1023.91
2022-11-14T10:59:23.710Z,1023.97
2022-11-14T11:00:23.718Z,1024.15
2022-11-14T11:01:23.775Z,1024.17
2022-11-14T11:02:23.711Z,1023.89
2022-11-14T11:03:23.711Z,1023.85
2022-11-14T11:04:23.794Z,1024
2022-11-14T11:05:23.706Z,1023.86
2022-11-14T11:06:23.741Z,1024.13
2022-11-14T11:07:23.795Z,1024.12
2022-11-14T11:08:42.547Z,1023.96
2022-11-14T11:09:23.763Z,1023.96
2022-11-14T11:10:23.741Z,1023.82
2022-11-14T11:11:23.828Z,1023.9
2022-11-14T11:12:23.829Z,1023.99
2022-11-14T11:13:23.704Z,1024.09
2022-11-14T11:14:23.712Z,1023.91
2022-11-14T11:15:23.707Z,1023.88
2022-11-14T11:16:23.736Z,1024
2022-11-14T11:17:25.843Z,1023.71
2022-11-14T11:18:23.722Z,1023.97
2022-11-14T11:19:23.728Z,1023.69
2022-11-14T11:20:23.723Z,1023.75
2022-11-14T11:21:23.856Z,1023.73
2022-11-14T11:22:23.728Z,1023.91
2022-11-14T11:23:23.724Z,1023.69
2022-11-14T11:24:23.728Z,1023.76
2022-11-14T11:25:23.776Z,1023.7
2022-11-14T11:26:23.750Z,1023.85
2022-11-14T11:27:23.793Z,1023.65
2022-11-14T11:28:23.782Z,1023.84
2022-11-14T11:29:23.718Z,1023.53
2022-11-14T11:30:23.718Z,1023.6
2022-11-14T11:31:23.745Z,1023.61
2022-11-14T11:32:23.720Z,1023.71
2022-11-14T11:33:23.717Z,1023.61
2022-11-14T11:34:23.718Z,1023.73
2022-11-14T11:35:23.717Z,1023.61
2022-11-14T11:36:23.734Z,1023.76
2022-11-14T11:37:23.765Z,1023.82
2022-11-14T11:38:46.286Z,1023.68
2022-11-14T11:39:45.067Z,1023.48
2022-11-14T11:40:45.118Z,1023.7
2022-11-14T11:43:36.640Z,1023.59
2022-11-14T11:43:45.032Z,1023.68
2022-11-14T11:44:45.025Z,1023.68
2022-11-14T11:45:45.074Z,1023.68
2022-11-14T11:46:45.035Z,1023.48
2022-11-14T11:47:45.023Z,1023.4
2022-11-14T11:48:45.010Z,1023.4
2022-11-14T11:49:50.066Z,1023.36
2022-11-14T11:50:45.040Z,1023.31
2022-11-14T11:52:33.780Z,1023.31
2022-11-14T11:53:32.199Z,1023.2
2022-11-14T11:54:31.758Z,1023.18
2022-11-14T11:55:31.752Z,1023.12
2022-11-14T11:56:31.747Z,1023.2
2022-11-14T11:57:31.757Z,1023.17
2022-11-14T11:58:31.758Z,1023.16
2022-11-14T11:59:32.322Z,1023.17
2022-11-14T12:00:31.748Z,1023.1
2022-11-14T12:01:31.752Z,1023.06
2022-11-14T12:02:31.839Z,1023.03
2022-11-14T12:03:31.926Z,1023.4
2022-11-14T12:04:31.749Z,1023.01
2022-11-14T12:05:31.731Z,1023.03
2022-11-14T12:06:31.743Z,1022.99
2022-11-14T12:07:31.800Z,1022.98
2022-11-14T12:08:31.744Z,1023.01
2022-11-14T12:09:55.644Z,1023.01
2022-11-14T12:10:31.746Z,1022.97
2022-11-14T12:11:31.749Z,1023.21